sensor_id;sensor_type;location;lat;lon;timestamp;temperature;humidity
35085;SHT85;21267;51.032;6.998;2022-07-30T00:34:51;18.51;76.28
35085;SHT85;21267;51.032;6.998;2022-07-30T00:37:17;18.36;76.71
35085;SHT85;21267;51.032;6.998;2022-07-30T00:39:44;18.23;77.33
35085;SHT85;21267;51.032;6.998;2022-07-30T00:42:11;18.14;77.52
35085;SHT85;21267;51.032;6.998;2022-07-30T00:44:37;18.03;77.94
35085;SHT85;21267;51.032;6.998;2022-07-30T00:47:06;17.83;78.50
35085;SHT85;21267;51.032;6.998;2022-07-30T00:49:32;17.86;78.50
35085;SHT85;21267;51.032;6.998;2022-07-30T00:51:59;17.98;78.32
35085;SHT85;21267;51.032;6.998;2022-07-30T00:54:26;18.09;78.14
35085;SHT85;21267;51.032;6.998;2022-07-30T00:56:52;18.00;78.25
35085;SHT85;21267;51.032;6.998;2022-07-30T00:59:19;17.99;78.21
35085;SHT85;21267;51.032;6.998;2022-07-30T01:01:46;17.85;78.78
35085;SHT85;21267;51.032;6.998;2022-07-30T01:04:12;17.52;79.95
35085;SHT85;21267;51.032;6.998;2022-07-30T01:06:39;17.47;80.11
35085;SHT85;21267;51.032;6.998;2022-07-30T01:09:07;17.86;79.09
35085;SHT85;21267;51.032;6.998;2022-07-30T01:11:37;17.83;78.80
35085;SHT85;21267;51.032;6.998;2022-07-30T01:14:04;17.71;79.31
35085;SHT85;21267;51.032;6.998;2022-07-30T01:16:33;17.75;79.37
35085;SHT85;21267;51.032;6.998;2022-07-30T01:19:06;17.66;79.58
35085;SHT85;21267;51.032;6.998;2022-07-30T01:22:08;17.68;79.43
35085;SHT85;21267;51.032;6.998;2022-07-30T01:24:41;17.57;79.40
35085;SHT85;21267;51.032;6.998;2022-07-30T01:27:09;17.62;79.18
35085;SHT85;21267;51.032;6.998;2022-07-30T01:29:38;17.51;79.62
35085;SHT85;21267;51.032;6.998;2022-07-30T01:32:06;17.28;80.55
35085;SHT85;21267;51.032;6.998;2022-07-30T01:34:35;17.45;80.15
35085;SHT85;21267;51.032;6.998;2022-07-30T01:37:03;17.17;81.08
35085;SHT85;21267;51.032;6.998;2022-07-30T01:39:31;17.06;81.79
35085;SHT85;21267;51.032;6.998;2022-07-30T01:41:59;17.00;82.02
35085;SHT85;21267;51.032;6.998;2022-07-30T01:44:31;16.93;82.14
35085;SHT85;21267;51.032;6.998;2022-07-30T01:46:58;17.06;81.65
35085;SHT85;21267;51.032;6.998;2022-07-30T01:49:28;17.37;80.58
35085;SHT85;21267;51.032;6.998;2022-07-30T01:51:56;16.89;82.32
35085;SHT85;21267;51.032;6.998;2022-07-30T01:54:25;17.06;81.63
35085;SHT85;21267;51.032;6.998;2022-07-30T01:56:53;17.15;81.42
35085;SHT85;21267;51.032;6.998;2022-07-30T01:59:21;17.03;81.84
35085;SHT85;21267;51.032;6.998;2022-07-30T02:01:49;17.07;81.60
35085;SHT85;21267;51.032;6.998;2022-07-30T02:04:16;17.00;81.84
35085;SHT85;21267;51.032;6.998;2022-07-30T02:06:46;16.96;82.09
35085;SHT85;21267;51.032;6.998;2022-07-30T02:09:18;17.00;81.84
35085;SHT85;21267;51.032;6.998;2022-07-30T02:11:48;16.93;82.03
35085;SHT85;21267;51.032;6.998;2022-07-30T02:14:47;16.79;82.41
35085;SHT85;21267;51.032;6.998;2022-07-30T02:17:42;16.90;82.43
35085;SHT85;21267;51.032;6.998;2022-07-30T02:20:12;17.15;81.18
35085;SHT85;21267;51.032;6.998;2022-07-30T02:22:43;17.15;81.17
35085;SHT85;21267;51.032;6.998;2022-07-30T02:25:14;17.17;81.30
35085;SHT85;21267;51.032;6.998;2022-07-30T02:27:43;17.17;81.16
35085;SHT85;21267;51.032;6.998;2022-07-30T02:30:12;17.04;81.70
35085;SHT85;21267;51.032;6.998;2022-07-30T02:32:41;17.07;81.50
35085;SHT85;21267;51.032;6.998;2022-07-30T02:35:17;17.15;81.31
35085;SHT85;21267;51.032;6.998;2022-07-30T02:37:47;17.18;81.18
35085;SHT85;21267;51.032;6.998;2022-07-30T02:40:18;17.35;80.62
35085;SHT85;21267;51.032;6.998;2022-07-30T02:42:48;17.26;81.02
35085;SHT85;21267;51.032;6.998;2022-07-30T02:45:16;17.45;80.24
35085;SHT85;21267;51.032;6.998;2022-07-30T02:47:50;17.52;79.78
35085;SHT85;21267;51.032;6.998;2022-07-30T02:50:19;17.55;79.76
35085;SHT85;21267;51.032;6.998;2022-07-30T02:52:47;17.54;79.60
35085;SHT85;21267;51.032;6.998;2022-07-30T02:55:16;17.48;79.63
35085;SHT85;21267;51.032;6.998;2022-07-30T02:57:43;17.40;80.07
35085;SHT85;21267;51.032;6.998;2022-07-30T03:00:11;17.20;80.36
35085;SHT85;21267;51.032;6.998;2022-07-30T03:02:38;17.23;80.69
35085;SHT85;21267;51.032;6.998;2022-07-30T03:05:10;17.31;80.34
35085;SHT85;21267;51.032;6.998;2022-07-30T03:07:38;17.30;80.44
35085;SHT85;21267;51.032;6.998;2022-07-30T03:10:06;17.24;80.65
35085;SHT85;21267;51.032;6.998;2022-07-30T03:12:33;17.30;80.72
35085;SHT85;21267;51.032;6.998;2022-07-30T03:15:00;17.30;80.46
35085;SHT85;21267;51.032;6.998;2022-07-30T03:17:30;17.28;80.77
35085;SHT85;21267;51.032;6.998;2022-07-30T03:19:59;17.17;81.18
35085;SHT85;21267;51.032;6.998;2022-07-30T03:22:27;17.08;81.34
35085;SHT85;21267;51.032;6.998;2022-07-30T03:24:59;17.06;81.57
35085;SHT85;21267;51.032;6.998;2022-07-30T03:27:29;16.99;81.66
35085;SHT85;21267;51.032;6.998;2022-07-30T03:29:56;16.94;82.13
35085;SHT85;21267;51.032;6.998;2022-07-30T03:32:24;16.66;83.00
35085;SHT85;21267;51.032;6.998;2022-07-30T03:34:52;16.77;82.87
35085;SHT85;21267;51.032;6.998;2022-07-30T03:37:21;16.92;82.36
35085;SHT85;21267;51.032;6.998;2022-07-30T03:39:48;16.61;83.45
35085;SHT85;21267;51.032;6.998;2022-07-30T03:42:15;16.58;83.53
35085;SHT85;21267;51.032;6.998;2022-07-30T03:44:42;16.58;83.76
35085;SHT85;21267;51.032;6.998;2022-07-30T03:47:12;16.75;82.92
35085;SHT85;21267;51.032;6.998;2022-07-30T03:49:39;16.75;82.78
35085;SHT85;21267;51.032;6.998;2022-07-30T03:52:06;16.73;83.09
35085;SHT85;21267;51.032;6.998;2022-07-30T03:54:34;16.75;82.76
35085;SHT85;21267;51.032;6.998;2022-07-30T03:57:03;16.71;83.22
35085;SHT85;21267;51.032;6.998;2022-07-30T03:59:30;16.80;82.62
35085;SHT85;21267;51.032;6.998;2022-07-30T04:02:01;16.68;83.06
35085;SHT85;21267;51.032;6.998;2022-07-30T04:04:32;16.65;83.15
35085;SHT85;21267;51.032;6.998;2022-07-30T04:06:58;16.58;83.85
35085;SHT85;21267;51.032;6.998;2022-07-30T04:09:26;16.61;83.40
35085;SHT85;21267;51.032;6.998;2022-07-30T04:11:52;16.58;83.56
35085;SHT85;21267;51.032;6.998;2022-07-30T04:14:19;16.73;83.01
35085;SHT85;21267;51.032;6.998;2022-07-30T04:17:08;16.84;82.51
35085;SHT85;21267;51.032;6.998;2022-07-30T04:20:02;16.73;82.58
35085;SHT85;21267;51.032;6.998;2022-07-30T04:22:33;16.80;82.34
35085;SHT85;21267;51.032;6.998;2022-07-30T04:25:01;16.80;82.20
35085;SHT85;21267;51.032;6.998;2022-07-30T04:27:29;16.84;81.87
35085;SHT85;21267;51.032;6.998;2022-07-30T04:29:57;16.79;81.97
35085;SHT85;21267;51.032;6.998;2022-07-30T04:32:24;16.77;82.16
35085;SHT85;21267;51.032;6.998;2022-07-30T04:34:53;16.86;81.89
35085;SHT85;21267;51.032;6.998;2022-07-30T04:37:23;16.83;81.83
35085;SHT85;21267;51.032;6.998;2022-07-30T04:39:50;16.82;81.87
35085;SHT85;21267;51.032;6.998;2022-07-30T04:42:20;16.87;81.88
35085;SHT85;21267;51.032;6.998;2022-07-30T04:44:47;16.92;81.59
35085;SHT85;21267;51.032;6.998;2022-07-30T04:47:18;16.97;81.37
35085;SHT85;21267;51.032;6.998;2022-07-30T04:49:46;17.00;81.31
35085;SHT85;21267;51.032;6.998;2022-07-30T04:52:13;16.90;81.65
35085;SHT85;21267;51.032;6.998;2022-07-30T04:54:50;16.94;81.54
35085;SHT85;21267;51.032;6.998;2022-07-30T04:57:18;17.06;81.20
35085;SHT85;21267;51.032;6.998;2022-07-30T04:59:45;17.04;81.25
35085;SHT85;21267;51.032;6.998;2022-07-30T05:02:14;17.06;81.37
35085;SHT85;21267;51.032;6.998;2022-07-30T05:04:41;16.96;81.65
35085;SHT85;21267;51.032;6.998;2022-07-30T05:07:10;16.92;82.13
35085;SHT85;21267;51.032;6.998;2022-07-30T05:09:38;16.87;81.97
35085;SHT85;21267;51.032;6.998;2022-07-30T05:12:08;17.00;81.67
35085;SHT85;21267;51.032;6.998;2022-07-30T05:14:35;16.99;81.68
35085;SHT85;21267;51.032;6.998;2022-07-30T05:17:02;16.92;82.20
35085;SHT85;21267;51.032;6.998;2022-07-30T05:19:29;16.80;82.90
35085;SHT85;21267;51.032;6.998;2022-07-30T05:21:56;16.76;83.02
35085;SHT85;21267;51.032;6.998;2022-07-30T05:24:22;16.77;83.38
35085;SHT85;21267;51.032;6.998;2022-07-30T05:26:49;16.76;83.46
35085;SHT85;21267;51.032;6.998;2022-07-30T05:29:16;16.92;83.15
35085;SHT85;21267;51.032;6.998;2022-07-30T05:31:45;16.94;83.17
35085;SHT85;21267;51.032;6.998;2022-07-30T05:34:12;17.02;83.17
35085;SHT85;21267;51.032;6.998;2022-07-30T05:36:38;17.07;83.16
35085;SHT85;21267;51.032;6.998;2022-07-30T05:39:05;17.08;83.30
35085;SHT85;21267;51.032;6.998;2022-07-30T05:41:31;17.15;83.22
35085;SHT85;21267;51.032;6.998;2022-07-30T05:43:59;17.20;83.13
35085;SHT85;21267;51.032;6.998;2022-07-30T05:46:25;17.26;83.16
35085;SHT85;21267;51.032;6.998;2022-07-30T05:48:52;17.23;83.34
35085;SHT85;21267;51.032;6.998;2022-07-30T05:51:19;17.17;83.78
35085;SHT85;21267;51.032;6.998;2022-07-30T05:53:47;17.26;83.45
35085;SHT85;21267;51.032;6.998;2022-07-30T05:56:14;17.42;83.23
35085;SHT85;21267;51.032;6.998;2022-07-30T05:58:41;17.40;83.59
35085;SHT85;21267;51.032;6.998;2022-07-30T06:01:07;17.55;83.24
35085;SHT85;21267;51.032;6.998;2022-07-30T06:03:34;17.71;83.17
35085;SHT85;21267;51.032;6.998;2022-07-30T06:06:04;17.62;82.73
35085;SHT85;21267;51.032;6.998;2022-07-30T06:08:32;17.96;82.13
35085;SHT85;21267;51.032;6.998;2022-07-30T06:10:59;17.65;82.69
35085;SHT85;21267;51.032;6.998;2022-07-30T06:13:25;17.50;83.47
35085;SHT85;21267;51.032;6.998;2022-07-30T06:15:52;17.51;83.53
35085;SHT85;21267;51.032;6.998;2022-07-30T06:18:19;17.72;83.11
35085;SHT85;21267;51.032;6.998;2022-07-30T06:20:49;17.57;83.81
35085;SHT85;21267;51.032;6.998;2022-07-30T06:23:17;17.51;83.98
35085;SHT85;21267;51.032;6.998;2022-07-30T06:25:44;17.52;83.86
35085;SHT85;21267;51.032;6.998;2022-07-30T06:28:10;17.55;84.15
35085;SHT85;21267;51.032;6.998;2022-07-30T17:31:02;28.63;42.80
35085;SHT85;21267;51.032;6.998;2022-07-30T17:33:29;28.54;42.96
35085;SHT85;21267;51.032;6.998;2022-07-30T17:35:55;27.85;44.21
35085;SHT85;21267;51.032;6.998;2022-07-30T17:38:22;27.75;44.14
35085;SHT85;21267;51.032;6.998;2022-07-30T17:40:48;27.69;44.41
35085;SHT85;21267;51.032;6.998;2022-07-30T17:43:15;27.12;45.57
35085;SHT85;21267;51.032;6.998;2022-07-30T17:45:42;27.18;45.40
35085;SHT85;21267;51.032;6.998;2022-07-30T17:48:08;27.04;45.69
35085;SHT85;21267;51.032;6.998;2022-07-30T17:50:35;27.20;45.55
35085;SHT85;21267;51.032;6.998;2022-07-30T17:53:03;27.18;45.66
35085;SHT85;21267;51.032;6.998;2022-07-30T17:59:38;27.24;45.93
35085;SHT85;21267;51.032;6.998;2022-07-30T18:02:05;27.07;46.28
35085;SHT85;21267;51.032;6.998;2022-07-30T18:04:32;26.87;46.64
35085;SHT85;21267;51.032;6.998;2022-07-30T18:07:01;26.60;47.01
35085;SHT85;21267;51.032;6.998;2022-07-30T18:09:28;26.53;47.09
35085;SHT85;21267;51.032;6.998;2022-07-30T18:12:04;26.60;46.85
35085;SHT85;21267;51.032;6.998;2022-07-30T18:14:31;26.59;47.29
35085;SHT85;21267;51.032;6.998;2022-07-30T18:16:58;26.42;47.51
35085;SHT85;21267;51.032;6.998;2022-07-30T18:19:25;26.35;47.71
35085;SHT85;21267;51.032;6.998;2022-07-30T18:21:53;26.53;47.53
35085;SHT85;21267;51.032;6.998;2022-07-30T18:24:20;26.44;47.65
35085;SHT85;21267;51.032;6.998;2022-07-30T18:26:50;26.35;48.06
35085;SHT85;21267;51.032;6.998;2022-07-30T18:29:17;26.37;48.21
35085;SHT85;21267;51.032;6.998;2022-07-30T18:31:46;26.18;48.68
35085;SHT85;21267;51.032;6.998;2022-07-30T18:34:12;26.15;48.73
35085;SHT85;21267;51.032;6.998;2022-07-30T18:36:39;26.01;49.21
35085;SHT85;21267;51.032;6.998;2022-07-30T18:39:06;25.81;49.68
35085;SHT85;21267;51.032;6.998;2022-07-30T18:41:33;25.96;49.40
35085;SHT85;21267;51.032;6.998;2022-07-30T18:43:59;25.78;49.75
35085;SHT85;21267;51.032;6.998;2022-07-30T18:46:26;25.85;49.42
35085;SHT85;21267;51.032;6.998;2022-07-30T18:48:53;25.67;49.92
35085;SHT85;21267;51.032;6.998;2022-07-30T18:51:20;25.45;50.32
35085;SHT85;21267;51.032;6.998;2022-07-30T18:53:51;25.38;50.53
35085;SHT85;21267;51.032;6.998;2022-07-30T18:56:18;25.44;50.37
35085;SHT85;21267;51.032;6.998;2022-07-30T18:58:46;25.48;50.53
35085;SHT85;21267;51.032;6.998;2022-07-30T19:01:12;25.28;51.04
35085;SHT85;21267;51.032;6.998;2022-07-30T19:03:39;25.20;51.14
35085;SHT85;21267;51.032;6.998;2022-07-30T19:06:06;25.38;50.75
35085;SHT85;21267;51.032;6.998;2022-07-30T19:08:32;25.31;50.95
35085;SHT85;21267;51.032;6.998;2022-07-30T19:10:59;25.15;51.43
35085;SHT85;21267;51.032;6.998;2022-07-30T19:13:26;25.15;51.44
35085;SHT85;21267;51.032;6.998;2022-07-30T19:15:53;25.26;51.14
35085;SHT85;21267;51.032;6.998;2022-07-30T19:18:19;25.12;51.33
35085;SHT85;21267;51.032;6.998;2022-07-30T19:20:46;25.04;51.43
35085;SHT85;21267;51.032;6.998;2022-07-30T19:23:13;24.96;51.66
35085;SHT85;21267;51.032;6.998;2022-07-30T19:25:41;24.83;51.89
35085;SHT85;21267;51.032;6.998;2022-07-30T19:28:08;24.90;51.89
35085;SHT85;21267;51.032;6.998;2022-07-30T19:30:36;24.80;52.08
35085;SHT85;21267;51.032;6.998;2022-07-30T19:33:04;24.90;51.96
35085;SHT85;21267;51.032;6.998;2022-07-30T19:35:34;24.80;52.16
35085;SHT85;21267;51.032;6.998;2022-07-30T19:38:01;24.90;51.94
35085;SHT85;21267;51.032;6.998;2022-07-30T19:40:28;24.83;52.14
35085;SHT85;21267;51.032;6.998;2022-07-30T19:43:00;24.82;52.22
35085;SHT85;21267;51.032;6.998;2022-07-30T19:45:34;24.73;52.41
35085;SHT85;21267;51.032;6.998;2022-07-30T19:48:14;24.73;52.33
35085;SHT85;21267;51.032;6.998;2022-07-30T19:50:55;24.66;52.51
35085;SHT85;21267;51.032;6.998;2022-07-30T19:53:23;24.71;52.48
35085;SHT85;21267;51.032;6.998;2022-07-30T19:55:50;24.72;52.41
35085;SHT85;21267;51.032;6.998;2022-07-30T19:58:17;24.66;52.55
35085;SHT85;21267;51.032;6.998;2022-07-30T20:00:46;24.59;52.79
35085;SHT85;21267;51.032;6.998;2022-07-30T20:03:15;24.61;52.51
35085;SHT85;21267;51.032;6.998;2022-07-30T20:05:51;24.65;52.52
35085;SHT85;21267;51.032;6.998;2022-07-30T20:08:25;24.53;52.85
35085;SHT85;21267;51.032;6.998;2022-07-30T20:10:52;24.52;52.73
35085;SHT85;21267;51.032;6.998;2022-07-30T20:13:23;24.48;53.03
35085;SHT85;21267;51.032;6.998;2022-07-30T20:16:10;24.29;53.57
35085;SHT85;21267;51.032;6.998;2022-07-30T20:18:38;24.24;53.72
35085;SHT85;21267;51.032;6.998;2022-07-30T20:21:05;24.11;54.15
35085;SHT85;21267;51.032;6.998;2022-07-30T20:23:39;23.98;54.65
35085;SHT85;21267;51.032;6.998;2022-07-30T20:26:06;23.87;55.21
35085;SHT85;21267;51.032;6.998;2022-07-30T20:28:39;23.83;55.57
35085;SHT85;21267;51.032;6.998;2022-07-30T20:31:05;23.69;56.10
35085;SHT85;21267;51.032;6.998;2022-07-30T20:33:32;23.70;55.95
35085;SHT85;21267;51.032;6.998;2022-07-30T20:36:03;23.67;55.95
35085;SHT85;21267;51.032;6.998;2022-07-30T20:38:35;23.62;56.18
35085;SHT85;21267;51.032;6.998;2022-07-30T20:41:04;23.60;56.14
35085;SHT85;21267;51.032;6.998;2022-07-30T20:43:36;23.59;56.39
35085;SHT85;21267;51.032;6.998;2022-07-30T20:46:11;23.63;56.19
35085;SHT85;21267;51.032;6.998;2022-07-30T20:48:40;23.71;56.03
35085;SHT85;21267;51.032;6.998;2022-07-30T20:51:10;23.50;56.63
35085;SHT85;21267;51.032;6.998;2022-07-30T20:53:36;23.59;56.40
35085;SHT85;21267;51.032;6.998;2022-07-30T20:56:03;23.69;56.35
35085;SHT85;21267;51.032;6.998;2022-07-30T20:58:30;23.90;56.01
35085;SHT85;21267;51.032;6.998;2022-07-30T21:00:58;23.87;56.34
35085;SHT85;21267;51.032;6.998;2022-07-30T21:03:30;23.83;56.34
35085;SHT85;21267;51.032;6.998;2022-07-30T21:05:57;23.65;57.02
35085;SHT85;21267;51.032;6.998;2022-07-30T21:08:25;23.58;57.63
35085;SHT85;21267;51.032;6.998;2022-07-30T21:10:51;23.46;58.07
35085;SHT85;21267;51.032;6.998;2022-07-30T21:13:20;23.45;58.29
35085;SHT85;21267;51.032;6.998;2022-07-30T21:15:50;23.39;58.48
35085;SHT85;21267;51.032;6.998;2022-07-30T21:18:28;23.38;58.02
35085;SHT85;21267;51.032;6.998;2022-07-30T21:20:55;23.28;58.03
35085;SHT85;21267;51.032;6.998;2022-07-30T21:23:22;23.33;57.76
35085;SHT85;21267;51.032;6.998;2022-07-30T21:25:50;23.28;57.96
35085;SHT85;21267;51.032;6.998;2022-07-30T21:28:29;23.32;57.84
35085;SHT85;21267;51.032;6.998;2022-07-30T21:31:01;23.40;57.75
35085;SHT85;21267;51.032;6.998;2022-07-30T21:33:27;23.29;57.82
35085;SHT85;21267;51.032;6.998;2022-07-30T21:35:57;23.28;58.21
35085;SHT85;21267;51.032;6.998;2022-07-30T21:38:23;23.19;58.53
35085;SHT85;21267;51.032;6.998;2022-07-30T21:40:52;23.25;58.35
35085;SHT85;21267;51.032;6.998;2022-07-30T21:43:18;23.22;58.54
35085;SHT85;21267;51.032;6.998;2022-07-30T21:45:55;23.28;58.54
35085;SHT85;21267;51.032;6.998;2022-07-30T21:48:23;23.45;58.25
35085;SHT85;21267;51.032;6.998;2022-07-30T21:50:49;23.35;58.61
35085;SHT85;21267;51.032;6.998;2022-07-30T21:53:16;23.19;59.00
35085;SHT85;21267;51.032;6.998;2022-07-30T21:56:03;23.14;59.22
35085;SHT85;21267;51.032;6.998;2022-07-30T21:58:30;23.08;59.73
35085;SHT85;21267;51.032;6.998;2022-07-30T22:01:00;23.05;59.62
35085;SHT85;21267;51.032;6.998;2022-07-30T22:03:41;22.87;60.06
35085;SHT85;21267;51.032;6.998;2022-07-30T22:06:28;22.99;59.89
35085;SHT85;21267;51.032;6.998;2022-07-30T22:08:55;23.01;60.10
35085;SHT85;21267;51.032;6.998;2022-07-30T22:11:21;22.88;60.31
35085;SHT85;21267;51.032;6.998;2022-07-30T22:13:48;22.88;60.53
35085;SHT85;21267;51.032;6.998;2022-07-30T22:16:18;22.92;60.38
35085;SHT85;21267;51.032;6.998;2022-07-30T22:18:46;22.81;60.55
35085;SHT85;21267;51.032;6.998;2022-07-30T22:21:13;22.74;60.70
35085;SHT85;21267;51.032;6.998;2022-07-30T22:23:40;22.74;60.78
35085;SHT85;21267;51.032;6.998;2022-07-30T22:26:27;22.65;61.23
35085;SHT85;21267;51.032;6.998;2022-07-30T22:28:53;22.67;61.26
35085;SHT85;21267;51.032;6.998;2022-07-30T22:31:20;22.78;60.96
35085;SHT85;21267;51.032;6.998;2022-07-30T22:33:47;22.65;61.28
35085;SHT85;21267;51.032;6.998;2022-07-30T22:36:16;22.50;61.61
35085;SHT85;21267;51.032;6.998;2022-07-30T22:38:50;22.45;61.83
35085;SHT85;21267;51.032;6.998;2022-07-30T22:41:24;22.37;61.95
35085;SHT85;21267;51.032;6.998;2022-07-30T22:43:54;22.32;61.97
35085;SHT85;21267;51.032;6.998;2022-07-30T22:46:21;22.34;62.12
35085;SHT85;21267;51.032;6.998;2022-07-30T22:48:56;22.24;62.28
35085;SHT85;21267;51.032;6.998;2022-07-30T22:51:25;22.27;62.35
35085;SHT85;21267;51.032;6.998;2022-07-30T22:54:11;22.24;62.51
35085;SHT85;21267;51.032;6.998;2022-07-30T22:56:40;22.22;62.57
35085;SHT85;21267;51.032;6.998;2022-07-30T22:59:06;22.29;62.44
35085;SHT85;21267;51.032;6.998;2022-07-30T23:01:33;22.24;62.89
35085;SHT85;21267;51.032;6.998;2022-07-30T23:04:00;22.23;62.75
35085;SHT85;21267;51.032;6.998;2022-07-30T23:06:27;22.10;63.09
35085;SHT85;21267;51.032;6.998;2022-07-30T23:08:55;22.12;63.26
35085;SHT85;21267;51.032;6.998;2022-07-30T23:11:22;22.10;63.63
35085;SHT85;21267;51.032;6.998;2022-07-30T23:13:49;22.02;63.79
35085;SHT85;21267;51.032;6.998;2022-07-30T23:16:19;21.99;63.45
35085;SHT85;21267;51.032;6.998;2022-07-30T23:18:46;21.79;63.95
35085;SHT85;21267;51.032;6.998;2022-07-30T23:21:12;21.85;63.78
35085;SHT85;21267;51.032;6.998;2022-07-30T23:23:40;21.75;64.36
35085;SHT85;21267;51.032;6.998;2022-07-30T23:26:07;21.82;63.80
35085;SHT85;21267;51.032;6.998;2022-07-30T23:28:34;21.79;64.21
35085;SHT85;21267;51.032;6.998;2022-07-30T23:31:03;21.86;63.73
35085;SHT85;21267;51.032;6.998;2022-07-30T23:33:30;21.85;63.64
35085;SHT85;21267;51.032;6.998;2022-07-30T23:35:56;21.96;63.43
35085;SHT85;21267;51.032;6.998;2022-07-30T23:38:26;21.90;63.48
35085;SHT85;21267;51.032;6.998;2022-07-30T23:40:53;21.81;63.62
35085;SHT85;21267;51.032;6.998;2022-07-30T23:43:19;21.81;63.83
35085;SHT85;21267;51.032;6.998;2022-07-30T23:45:46;21.72;64.08
35085;SHT85;21267;51.032;6.998;2022-07-30T23:48:13;21.66;64.50
35085;SHT85;21267;51.032;6.998;2022-07-30T23:50:40;21.59;64.73
35085;SHT85;21267;51.032;6.998;2022-07-30T23:53:06;21.52;65.06
35085;SHT85;21267;51.032;6.998;2022-07-30T23:55:33;21.71;64.55
35085;SHT85;21267;51.032;6.998;2022-07-30T23:58:00;21.65;64.51
